sensor_id;sensor_type;location;lat;lon;timestamp;pressure;altitude;pressure_sealevel;temperature;humidity
18749;BME280;9503;53.560;10.246;2022-07-29T00:02:39;101429.16;;;13.41;90.18
18749;BME280;9503;53.560;10.246;2022-07-29T00:05:08;101430.25;;;13.46;90.04
18749;BME280;9503;53.560;10.246;2022-07-29T00:07:35;101430.25;;;13.46;89.66
18749;BME280;9503;53.560;10.246;2022-07-29T00:10:02;101430.63;;;13.36;90.20
18749;BME280;9503;53.560;10.246;2022-07-29T00:12:30;101430.03;;;13.41;89.88
18749;BME280;9503;53.560;10.246;2022-07-29T00:14:57;101429.91;;;13.38;89.84
18749;BME280;9503;53.560;10.246;2022-07-29T00:17:24;101424.28;;;13.29;89.86
18749;BME280;9503;53.560;10.246;2022-07-29T00:19:51;101427.53;;;13.25;90.31
18749;BME280;9503;53.560;10.246;2022-07-29T00:22:18;101427.66;;;13.28;89.92
18749;BME280;9503;53.560;10.246;2022-07-29T00:24:47;101420.44;;;13.21;90.21
18749;BME280;9503;53.560;10.246;2022-07-29T00:27:14;101416.91;;;13.19;90.22
18749;BME280;9503;53.560;10.246;2022-07-29T00:29:43;101421.16;;;13.18;90.17
18749;BME280;9503;53.560;10.246;2022-07-29T00:32:10;101420.16;;;13.15;89.71
18749;BME280;9503;53.560;10.246;2022-07-29T00:34:37;101417.16;;;13.23;89.68
18749;BME280;9503;53.560;10.246;2022-07-29T00:37:21;101416.34;;;13.24;89.20
18749;BME280;9503;53.560;10.246;2022-07-29T00:39:49;101417.22;;;13.25;89.11
18749;BME280;9503;53.560;10.246;2022-07-29T00:42:16;101408.06;;;13.14;89.73
18749;BME280;9503;53.560;10.246;2022-07-29T00:44:46;101407.34;;;13.16;89.20
18749;BME280;9503;53.560;10.246;2022-07-29T00:47:14;101401.22;;;13.14;88.86
18749;BME280;9503;53.560;10.246;2022-07-29T00:49:41;101407.69;;;13.22;88.46
18749;BME280;9503;53.560;10.246;2022-07-29T00:52:09;101402.66;;;13.25;88.61
18749;BME280;9503;53.560;10.246;2022-07-29T00:54:38;101403.47;;;13.24;88.04
18749;BME280;9503;53.560;10.246;2022-07-29T00:57:06;101400.84;;;13.23;87.93
18749;BME280;9503;53.560;10.246;2022-07-29T00:59:34;101396.63;;;13.25;87.68
18749;BME280;9503;53.560;10.246;2022-07-29T01:02:02;101393.25;;;13.26;87.41
18749;BME280;9503;53.560;10.246;2022-07-29T01:04:34;101396.41;;;13.20;87.40
18749;BME280;9503;53.560;10.246;2022-07-29T01:07:03;101395.28;;;13.15;87.55
18749;BME280;9503;53.560;10.246;2022-07-29T01:09:31;101398.25;;;13.23;87.21
18749;BME280;9503;53.560;10.246;2022-07-29T01:12:00;101396.56;;;13.23;87.09
18749;BME280;9503;53.560;10.246;2022-07-29T01:14:28;101389.91;;;13.28;87.17
18749;BME280;9503;53.560;10.246;2022-07-29T01:17:00;101386.00;;;13.19;87.15
18749;BME280;9503;53.560;10.246;2022-07-29T01:19:46;101389.66;;;13.22;87.27
18749;BME280;9503;53.560;10.246;2022-07-29T01:22:25;101387.16;;;13.24;87.00
18749;BME280;9503;53.560;10.246;2022-07-29T01:25:11;101385.53;;;13.26;86.96
18749;BME280;9503;53.560;10.246;2022-07-29T01:27:47;101384.63;;;13.25;87.20
18749;BME280;9503;53.560;10.246;2022-07-29T01:30:20;101379.03;;;13.34;86.74
18749;BME280;9503;53.560;10.246;2022-07-29T01:32:50;101375.94;;;13.41;86.31
18749;BME280;9503;53.560;10.246;2022-07-29T01:35:24;101369.03;;;13.40;86.44
18749;BME280;9503;53.560;10.246;2022-07-29T01:37:56;101369.03;;;13.40;86.46
18749;BME280;9503;53.560;10.246;2022-07-29T01:40:29;101363.28;;;13.46;86.38
18749;BME280;9503;53.560;10.246;2022-07-29T01:42:58;101367.91;;;13.53;85.88
18749;BME280;9503;53.560;10.246;2022-07-29T01:45:32;101368.97;;;13.58;85.94
18749;BME280;9503;53.560;10.246;2022-07-29T01:48:10;101364.59;;;13.55;85.95
18749;BME280;9503;53.560;10.246;2022-07-29T01:50:53;101368.19;;;13.59;85.85
18749;BME280;9503;53.560;10.246;2022-07-29T01:53:36;101363.31;;;13.65;85.39
18749;BME280;9503;53.560;10.246;2022-07-29T01:56:06;101356.31;;;13.63;85.64
18749;BME280;9503;53.560;10.246;2022-07-29T01:58:39;101362.03;;;13.75;85.51
18749;BME280;9503;53.560;10.246;2022-07-29T02:01:08;101351.47;;;13.69;85.70
18749;BME280;9503;53.560;10.246;2022-07-29T02:03:37;101348.00;;;13.68;85.87
18749;BME280;9503;53.560;10.246;2022-07-29T02:06:06;101345.63;;;13.73;85.54
18749;BME280;9503;53.560;10.246;2022-07-29T02:08:36;101344.00;;;13.75;85.66
18749;BME280;9503;53.560;10.246;2022-07-29T02:11:05;101345.69;;;13.74;85.63
18749;BME280;9503;53.560;10.246;2022-07-29T02:13:34;101342.38;;;13.77;85.65
18749;BME280;9503;53.560;10.246;2022-07-29T02:16:02;101343.84;;;13.72;85.97
18749;BME280;9503;53.560;10.246;2022-07-29T02:18:35;101341.50;;;13.76;85.49
18749;BME280;9503;53.560;10.246;2022-07-29T02:21:03;101341.47;;;13.57;86.46
18749;BME280;9503;53.560;10.246;2022-07-29T02:23:32;101337.69;;;13.68;86.78
18749;BME280;9503;53.560;10.246;2022-07-29T02:26:02;101335.41;;;13.74;86.30
18749;BME280;9503;53.560;10.246;2022-07-29T02:28:30;101332.19;;;13.61;86.69
18749;BME280;9503;53.560;10.246;2022-07-29T02:30:59;101335.59;;;13.60;86.79
18749;BME280;9503;53.560;10.246;2022-07-29T02:33:29;101326.53;;;13.50;87.25
18749;BME280;9503;53.560;10.246;2022-07-29T02:35:59;101329.81;;;13.65;86.53
18749;BME280;9503;53.560;10.246;2022-07-29T02:38:28;101324.47;;;13.61;87.02
18749;BME280;9503;53.560;10.246;2022-07-29T02:41:17;101326.75;;;13.54;87.44
18749;BME280;9503;53.560;10.246;2022-07-29T02:43:47;101326.00;;;13.57;87.21
18749;BME280;9503;53.560;10.246;2022-07-29T02:46:19;101327.75;;;13.58;87.32
18749;BME280;9503;53.560;10.246;2022-07-29T02:48:51;101325.06;;;13.55;87.56
18749;BME280;9503;53.560;10.246;2022-07-29T02:51:27;101328.16;;;13.48;87.81
18749;BME280;9503;53.560;10.246;2022-07-29T02:53:56;101325.72;;;13.51;87.98
18749;BME280;9503;53.560;10.246;2022-07-29T02:56:25;101323.44;;;13.57;87.89
18749;BME280;9503;53.560;10.246;2022-07-29T02:58:55;101324.66;;;13.46;88.31
18749;BME280;9503;53.560;10.246;2022-07-29T03:01:25;101320.84;;;13.57;88.05
18749;BME280;9503;53.560;10.246;2022-07-29T03:03:56;101315.69;;;13.57;87.97
18749;BME280;9503;53.560;10.246;2022-07-29T03:06:26;101313.34;;;13.62;87.62
18749;BME280;9503;53.560;10.246;2022-07-29T03:08:55;101314.16;;;13.61;88.60
18749;BME280;9503;53.560;10.246;2022-07-29T03:11:23;101311.22;;;13.53;88.14
18749;BME280;9503;53.560;10.246;2022-07-29T03:13:50;101302.81;;;13.57;88.20
18749;BME280;9503;53.560;10.246;2022-07-29T03:16:18;101309.72;;;13.58;87.83
18749;BME280;9503;53.560;10.246;2022-07-29T03:18:46;101310.34;;;13.52;88.03
18749;BME280;9503;53.560;10.246;2022-07-29T03:21:13;101307.16;;;13.77;87.44
18749;BME280;9503;53.560;10.246;2022-07-29T03:23:44;101304.25;;;13.70;87.41
18749;BME280;9503;53.560;10.246;2022-07-29T03:26:11;101309.06;;;13.62;87.85
18749;BME280;9503;53.560;10.246;2022-07-29T03:28:38;101309.06;;;13.62;87.69
18749;BME280;9503;53.560;10.246;2022-07-29T03:31:05;101312.75;;;13.67;87.26
18749;BME280;9503;53.560;10.246;2022-07-29T03:33:35;101312.88;;;13.70;87.57
18749;BME280;9503;53.560;10.246;2022-07-29T03:36:02;101307.44;;;13.83;87.04
18749;BME280;9503;53.560;10.246;2022-07-29T03:38:29;101305.63;;;13.81;87.16
18749;BME280;9503;53.560;10.246;2022-07-29T03:41:01;101304.25;;;13.70;87.04
18749;BME280;9503;53.560;10.246;2022-07-29T03:43:30;101301.25;;;13.80;87.19
18749;BME280;9503;53.560;10.246;2022-07-29T03:46:00;101303.72;;;13.77;87.11
18749;BME280;9503;53.560;10.246;2022-07-29T03:48:30;101304.47;;;13.74;86.91
18749;BME280;9503;53.560;10.246;2022-07-29T03:50:59;101305.06;;;13.69;87.49
18749;BME280;9503;53.560;10.246;2022-07-29T03:53:28;101305.81;;;13.66;87.37
18749;BME280;9503;53.560;10.246;2022-07-29T03:56:00;101304.38;;;13.92;86.93
18749;BME280;9503;53.560;10.246;2022-07-29T03:58:30;101301.75;;;13.71;87.19
18749;BME280;9503;53.560;10.246;2022-07-29T04:00:57;101304.84;;;13.64;86.85
18749;BME280;9503;53.560;10.246;2022-07-29T04:03:25;101304.59;;;13.77;87.03
18749;BME280;9503;53.560;10.246;2022-07-29T04:05:59;101304.59;;;13.77;87.33
18749;BME280;9503;53.560;10.246;2022-07-29T04:08:26;101307.50;;;13.66;87.47
18749;BME280;9503;53.560;10.246;2022-07-29T04:10:53;101303.16;;;13.65;87.70
18749;BME280;9503;53.560;10.246;2022-07-29T04:13:21;101303.72;;;13.77;87.30
18749;BME280;9503;53.560;10.246;2022-07-29T04:15:48;101309.75;;;13.97;86.92
18749;BME280;9503;53.560;10.246;2022-07-29T04:18:15;101305.41;;;13.76;86.90
18749;BME280;9503;53.560;10.246;2022-07-29T04:20:42;101302.97;;;13.79;87.18
18749;BME280;9503;53.560;10.246;2022-07-29T04:23:08;101300.88;;;13.90;86.86
18749;BME280;9503;53.560;10.246;2022-07-29T04:25:37;101300.66;;;14.05;86.26
18749;BME280;9503;53.560;10.246;2022-07-29T04:28:04;101303.34;;;14.08;86.51
18749;BME280;9503;53.560;10.246;2022-07-29T04:30:33;101299.94;;;14.09;86.49
18749;BME280;9503;53.560;10.246;2022-07-29T04:33:00;101305.09;;;14.28;85.89
18749;BME280;9503;53.560;10.246;2022-07-29T04:35:27;101298.03;;;14.24;85.29
18749;BME280;9503;53.560;10.246;2022-07-29T04:37:54;101301.06;;;14.35;85.05
18749;BME280;9503;53.560;10.246;2022-07-29T04:40:21;101300.56;;;14.44;84.82
18749;BME280;9503;53.560;10.246;2022-07-29T04:42:48;101303.66;;;14.54;84.72
18749;BME280;9503;53.560;10.246;2022-07-29T04:45:15;101303.38;;;14.69;83.90
18749;BME280;9503;53.560;10.246;2022-07-29T04:47:43;101309.16;;;14.84;83.53
18749;BME280;9503;53.560;10.246;2022-07-29T04:50:12;101303.28;;;14.88;83.30
18749;BME280;9503;53.560;10.246;2022-07-29T04:52:39;101291.56;;;14.97;83.47
18749;BME280;9503;53.560;10.246;2022-07-29T04:55:06;101296.50;;;15.13;82.61
18749;BME280;9503;53.560;10.246;2022-07-29T04:57:33;101300.78;;;15.12;81.78
18749;BME280;9503;53.560;10.246;2022-07-29T05:00:00;101299.47;;;15.22;81.89
18749;BME280;9503;53.560;10.246;2022-07-29T05:02:27;101300.13;;;15.40;81.68
18749;BME280;9503;53.560;10.246;2022-07-29T05:04:55;101300.47;;;15.49;80.87
18749;BME280;9503;53.560;10.246;2022-07-29T05:07:22;101304.34;;;15.61;80.57
18749;BME280;9503;53.560;10.246;2022-07-29T05:09:48;101309.50;;;15.83;80.59
18749;BME280;9503;53.560;10.246;2022-07-29T05:12:15;101307.72;;;15.81;80.18
18749;BME280;9503;53.560;10.246;2022-07-29T05:14:42;101311.31;;;15.86;80.56
18749;BME280;9503;53.560;10.246;2022-07-29T05:17:09;101302.50;;;15.79;79.69
18749;BME280;9503;53.560;10.246;2022-07-29T05:19:39;101315.19;;;16.22;79.14
18749;BME280;9503;53.560;10.246;2022-07-29T05:22:07;101315.09;;;16.45;78.83
18749;BME280;9503;53.560;10.246;2022-07-29T05:24:39;101320.84;;;16.36;78.50
18749;BME280;9503;53.560;10.246;2022-07-29T05:27:06;101315.41;;;16.28;78.89
18749;BME280;9503;53.560;10.246;2022-07-29T05:29:33;101325.81;;;16.05;79.08
18749;BME280;9503;53.560;10.246;2022-07-29T05:32:00;101327.06;;;16.41;78.65
18749;BME280;9503;53.560;10.246;2022-07-29T05:34:26;101327.59;;;16.31;78.65
18749;BME280;9503;53.560;10.246;2022-07-29T05:36:53;101321.06;;;16.42;78.48
18749;BME280;9503;53.560;10.246;2022-07-29T05:39:22;101323.75;;;16.69;78.15
18749;BME280;9503;53.560;10.246;2022-07-29T05:41:49;101331.88;;;16.81;77.85
18749;BME280;9503;53.560;10.246;2022-07-29T05:44:15;101318.25;;;16.87;77.60
18749;BME280;9503;53.560;10.246;2022-07-29T05:46:42;101325.38;;;16.67;77.47
18749;BME280;9503;53.560;10.246;2022-07-29T05:49:09;101324.31;;;16.88;77.92
18749;BME280;9503;53.560;10.246;2022-07-29T05:51:36;101320.56;;;16.78;78.01
18749;BME280;9503;53.560;10.246;2022-07-29T05:54:03;101324.53;;;16.94;77.35
18749;BME280;9503;53.560;10.246;2022-07-29T05:56:31;101331.16;;;16.85;77.43
18749;BME280;9503;53.560;10.246;2022-07-29T05:58:57;101331.41;;;17.20;77.04
18749;BME280;9503;53.560;10.246;2022-07-29T06:01:25;101334.00;;;17.49;75.99
18749;BME280;9503;53.560;10.246;2022-07-29T06:03:51;101339.53;;;17.89;74.45
18749;BME280;9503;53.560;10.246;2022-07-29T06:06:21;101321.81;;;18.72;71.51
18749;BME280;9503;53.560;10.246;2022-07-29T06:08:48;101326.47;;;18.84;71.43
18749;BME280;9503;53.560;10.246;2022-07-29T06:11:15;101324.75;;;18.85;71.28
18749;BME280;9503;53.560;10.246;2022-07-29T06:13:43;101316.50;;;19.02;70.91
18749;BME280;9503;53.560;10.246;2022-07-29T06:16:10;101317.91;;;18.55;72.02
18749;BME280;9503;53.560;10.246;2022-07-29T06:18:36;101319.44;;;18.14;73.21
18749;BME280;9503;53.560;10.246;2022-07-29T06:21:08;101321.78;;;18.05;73.73
18749;BME280;9503;53.560;10.246;2022-07-29T06:23:35;101321.13;;;18.12;74.39
18749;BME280;9503;53.560;10.246;2022-07-29T06:26:03;101320.13;;;18.07;73.87
18749;BME280;9503;53.560;10.246;2022-07-29T06:28:29;101319.59;;;18.20;74.14
18749;BME280;9503;53.560;10.246;2022-07-29T06:30:58;101323.66;;;18.10;74.32
18749;BME280;9503;53.560;10.246;2022-07-29T06:33:25;101323.03;;;18.19;74.04
18749;BME280;9503;53.560;10.246;2022-07-29T06:35:51;101322.78;;;18.43;73.52
18749;BME280;9503;53.560;10.246;2022-07-29T06:38:18;101316.50;;;18.33;73.84
18749;BME280;9503;53.560;10.246;2022-07-29T06:40:45;101320.91;;;18.69;73.06
18749;BME280;9503;53.560;10.246;2022-07-29T06:43:31;101318.78;;;18.89;72.13
18749;BME280;9503;53.560;10.246;2022-07-29T06:46:06;101314.78;;;19.03;72.18
18749;BME280;9503;53.560;10.246;2022-07-29T06:48:33;101324.59;;;19.16;72.16
18749;BME280;9503;53.560;10.246;2022-07-29T06:51:02;101323.16;;;19.29;70.73
18749;BME280;9503;53.560;10.246;2022-07-29T06:53:30;101327.38;;;19.24;70.94
18749;BME280;9503;53.560;10.246;2022-07-29T06:55:57;101325.38;;;19.11;71.74
18749;BME280;9503;53.560;10.246;2022-07-29T06:58:25;101315.47;;;19.33;70.67
18749;BME280;9503;53.560;10.246;2022-07-29T07:00:52;101316.66;;;19.48;70.84
18749;BME280;9503;53.560;10.246;2022-07-29T07:03:21;101316.47;;;19.40;70.77
18749;BME280;9503;53.560;10.246;2022-07-29T07:05:48;101310.94;;;19.64;70.60
18749;BME280;9503;53.560;10.246;2022-07-29T07:08:15;101315.16;;;20.03;69.49
18749;BME280;9503;53.560;10.246;2022-07-29T07:10:42;101314.28;;;20.02;68.53
18749;BME280;9503;53.560;10.246;2022-07-29T07:13:10;101319.88;;;19.77;69.27
18749;BME280;9503;53.560;10.246;2022-07-29T07:15:37;101315.09;;;19.98;68.73
18749;BME280;9503;53.560;10.246;2022-07-29T07:18:04;101310.66;;;19.52;70.03
18749;BME280;9503;53.560;10.246;2022-07-29T07:20:33;101302.25;;;19.64;70.51
18749;BME280;9503;53.560;10.246;2022-07-29T07:23:00;101305.09;;;20.21;69.11
18749;BME280;9503;53.560;10.246;2022-07-29T07:25:26;101303.25;;;20.15;68.34
18749;BME280;9503;53.560;10.246;2022-07-29T07:27:53;101305.59;;;20.47;68.54
18749;BME280;9503;53.560;10.246;2022-07-29T07:30:20;101301.94;;;20.39;67.75
18749;BME280;9503;53.560;10.246;2022-07-29T07:32:47;101300.06;;;20.80;68.02
18749;BME280;9503;53.560;10.246;2022-07-29T07:35:14;101302.69;;;20.33;68.24
18749;BME280;9503;53.560;10.246;2022-07-29T07:37:42;101301.25;;;20.48;68.38
18749;BME280;9503;53.560;10.246;2022-07-29T07:40:11;101302.09;;;20.45;68.10
18749;BME280;9503;53.560;10.246;2022-07-29T07:42:38;101302.16;;;21.06;66.69
18749;BME280;9503;53.560;10.246;2022-07-29T07:45:07;101293.34;;;20.96;67.30
18749;BME280;9503;53.560;10.246;2022-07-29T07:47:35;101298.63;;;21.01;67.67
18749;BME280;9503;53.560;10.246;2022-07-29T07:50:05;101290.66;;;20.93;67.93
18749;BME280;9503;53.560;10.246;2022-07-29T07:52:33;101300.00;;;21.36;66.81
18749;BME280;9503;53.560;10.246;2022-07-29T07:55:01;101296.16;;;21.11;66.66
18749;BME280;9503;53.560;10.246;2022-07-29T07:57:28;101289.72;;;20.86;67.55
18749;BME280;9503;53.560;10.246;2022-07-29T07:59:55;101288.97;;;20.95;67.83
18749;BME280;9503;53.560;10.246;2022-07-29T08:02:21;101295.28;;;21.11;66.44
18749;BME280;9503;53.560;10.246;2022-07-29T08:04:48;101285.44;;;20.93;67.61
18749;BME280;9503;53.560;10.246;2022-07-29T08:07:15;101293.38;;;20.99;66.82
18749;BME280;9503;53.560;10.246;2022-07-29T08:09:42;101294.16;;;21.52;66.92
18749;BME280;9503;53.560;10.246;2022-07-29T08:12:10;101295.44;;;21.90;64.88
18749;BME280;9503;53.560;10.246;2022-07-29T08:14:37;101285.06;;;22.90;63.76
18749;BME280;9503;53.560;10.246;2022-07-29T08:17:04;101293.44;;;24.05;60.16
18749;BME280;9503;53.560;10.246;2022-07-29T08:19:31;101286.50;;;24.77;58.31
18749;BME280;9503;53.560;10.246;2022-07-29T08:22:01;101291.59;;;23.79;59.36
18749;BME280;9503;53.560;10.246;2022-07-29T08:24:27;101286.13;;;23.26;61.05
18749;BME280;9503;53.560;10.246;2022-07-29T08:27:13;101294.13;;;23.52;60.95
18749;BME280;9503;53.560;10.246;2022-07-29T08:29:40;101281.13;;;23.68;59.97
18749;BME280;9503;53.560;10.246;2022-07-29T08:32:10;101286.16;;;23.29;61.47
18749;BME280;9503;53.560;10.246;2022-07-29T08:34:50;101285.91;;;22.89;62.15
18749;BME280;9503;53.560;10.246;2022-07-29T08:37:17;101292.03;;;22.91;62.50
18749;BME280;9503;53.560;10.246;2022-07-29T08:39:44;101287.75;;;23.02;62.08
18749;BME280;9503;53.560;10.246;2022-07-29T08:42:12;101286.88;;;23.00;62.36
18749;BME280;9503;53.560;10.246;2022-07-29T08:44:40;101284.03;;;22.74;61.44
18749;BME280;9503;53.560;10.246;2022-07-29T08:47:07;101289.31;;;22.82;61.54
18749;BME280;9503;53.560;10.246;2022-07-29T08:49:37;101283.56;;;23.35;61.88
18749;BME280;9503;53.560;10.246;2022-07-29T08:52:04;101286.09;;;23.16;61.37
18749;BME280;9503;53.560;10.246;2022-07-29T08:54:31;101282.66;;;23.22;61.25
18749;BME280;9503;53.560;10.246;2022-07-29T08:56:59;101278.06;;;22.87;61.61
18749;BME280;9503;53.560;10.246;2022-07-29T08:59:30;101273.75;;;22.94;61.81
18749;BME280;9503;53.560;10.246;2022-07-29T09:02:01;101268.56;;;23.05;61.87
18749;BME280;9503;53.560;10.246;2022-07-29T09:04:30;101268.66;;;23.17;62.97
18749;BME280;9503;53.560;10.246;2022-07-29T09:07:03;101267.78;;;23.20;61.88
18749;BME280;9503;53.560;10.246;2022-07-29T09:09:33;101270.31;;;23.03;62.56
18749;BME280;9503;53.560;10.246;2022-07-29T09:12:00;101266.94;;;23.22;63.48
18749;BME280;9503;53.560;10.246;2022-07-29T09:14:30;101269.56;;;23.25;63.16
18749;BME280;9503;53.560;10.246;2022-07-29T09:16:57;101277.50;;;23.45;61.30
18749;BME280;9503;53.560;10.246;2022-07-29T09:19:27;101269.69;;;23.54;61.43
18749;BME280;9503;53.560;10.246;2022-07-29T09:21:55;101274.88;;;23.36;59.47
18749;BME280;9503;53.560;10.246;2022-07-29T09:24:42;101273.25;;;23.67;58.78
18749;BME280;9503;53.560;10.246;2022-07-29T09:27:18;101272.38;;;23.71;58.24
18749;BME280;9503;53.560;10.246;2022-07-29T09:29:54;101268.91;;;23.75;59.15
18749;BME280;9503;53.560;10.246;2022-07-29T09:32:22;101262.81;;;23.87;58.03
18749;BME280;9503;53.560;10.246;2022-07-29T09:34:49;101269.84;;;24.31;57.19
18749;BME280;9503;53.560;10.246;2022-07-29T09:37:25;101259.41;;;24.37;57.64
18749;BME280;9503;53.560;10.246;2022-07-29T09:39:53;101268.09;;;24.05;57.05
18749;BME280;9503;53.560;10.246;2022-07-29T09:42:27;101266.38;;;24.13;57.86
18749;BME280;9503;53.560;10.246;2022-07-29T09:44:56;101264.56;;;23.94;57.51
18749;BME280;9503;53.560;10.246;2022-07-29T09:47:41;101263.75;;;24.21;56.31
18749;BME280;9503;53.560;10.246;2022-07-29T09:50:10;101260.31;;;24.34;56.81
18749;BME280;9503;53.560;10.246;2022-07-29T09:52:45;101256.78;;;24.64;55.93
18749;BME280;9503;53.560;10.246;2022-07-29T09:55:13;101265.50;;;24.80;55.75
18749;BME280;9503;53.560;10.246;2022-07-29T09:57:40;101268.97;;;24.90;53.61
18749;BME280;9503;53.560;10.246;2022-07-29T10:00:11;101263.69;;;25.20;53.69
18749;BME280;9503;53.560;10.246;2022-07-29T10:02:39;101267.97;;;25.43;53.19
18749;BME280;9503;53.560;10.246;2022-07-29T10:05:16;101272.13;;;25.89;51.50
18749;BME280;9503;53.560;10.246;2022-07-29T10:07:44;101270.94;;;26.39;50.72
18749;BME280;9503;53.560;10.246;2022-07-29T10:10:18;101266.56;;;26.32;51.25
18749;BME280;9503;53.560;10.246;2022-07-29T10:12:50;101259.44;;;26.48;50.97
18749;BME280;9503;53.560;10.246;2022-07-29T10:15:21;101264.72;;;26.48;50.68
18749;BME280;9503;53.560;10.246;2022-07-29T10:17:48;101265.94;;;27.01;49.68
18749;BME280;9503;53.560;10.246;2022-07-29T10:20:15;101263.66;;;26.66;49.50
18749;BME280;9503;53.560;10.246;2022-07-29T10:22:42;101253.16;;;26.64;50.07
18749;BME280;9503;53.560;10.246;2022-07-29T10:25:10;101252.63;;;26.24;51.66
18749;BME280;9503;53.560;10.246;2022-07-29T10:27:37;101251.03;;;26.03;51.25
18749;BME280;9503;53.560;10.246;2022-07-29T10:30:05;101243.53;;;26.63;50.56
18749;BME280;9503;53.560;10.246;2022-07-29T10:32:50;101245.03;;;26.87;49.58
18749;BME280;9503;53.560;10.246;2022-07-29T10:35:26;101240.22;;;27.24;50.17
18749;BME280;9503;53.560;10.246;2022-07-29T10:38:08;101242.66;;;26.63;50.34
18749;BME280;9503;53.560;10.246;2022-07-29T10:40:42;101241.91;;;27.32;49.43
18749;BME280;9503;53.560;10.246;2022-07-29T10:43:31;101233.84;;;27.44;49.02
18749;BME280;9503;53.560;10.246;2022-07-29T10:46:01;101233.72;;;26.79;49.79
18749;BME280;9503;53.560;10.246;2022-07-29T10:48:30;101235.56;;;26.71;50.89
18749;BME280;9503;53.560;10.246;2022-07-29T10:51:01;101235.47;;;26.79;49.79
18749;BME280;9503;53.560;10.246;2022-07-29T10:53:48;101228.13;;;27.10;48.61
18749;BME280;9503;53.560;10.246;2022-07-29T10:56:25;101226.50;;;27.70;48.25
18749;BME280;9503;53.560;10.246;2022-07-29T10:59:24;101234.97;;;27.91;48.07
18749;BME280;9503;53.560;10.246;2022-07-29T11:01:52;101232.56;;;27.06;49.69
18749;BME280;9503;53.560;10.246;2022-07-29T11:07:24;101225.44;;;27.16;48.97
18749;BME280;9503;53.560;10.246;2022-07-29T11:10:23;101226.06;;;27.36;49.08
18749;BME280;9503;53.560;10.246;2022-07-29T11:12:50;101221.31;;;28.21;47.32
18749;BME280;9503;53.560;10.246;2022-07-29T11:15:19;101223.97;;;29.17;45.80
18749;BME280;9503;53.560;10.246;2022-07-29T11:18:04;101219.47;;;29.99;44.04
18749;BME280;9503;53.560;10.246;2022-07-29T11:20:32;101219.28;;;30.07;44.57
18749;BME280;9503;53.560;10.246;2022-07-29T11:23:01;101215.34;;;29.49;45.13
18749;BME280;9503;53.560;10.246;2022-07-29T11:25:43;101216.56;;;29.33;45.43
18749;BME280;9503;53.560;10.246;2022-07-29T11:28:13;101213.81;;;28.48;45.79
18749;BME280;9503;53.560;10.246;2022-07-29T11:30:50;101212.81;;;28.02;47.00
18749;BME280;9503;53.560;10.246;2022-07-29T11:33:28;101213.66;;;28.58;45.98
18749;BME280;9503;53.560;10.246;2022-07-29T11:38:36;101201.63;;;29.72;44.13
18749;BME280;9503;53.560;10.246;2022-07-29T11:41:22;101204.22;;;28.90;45.63
18749;BME280;9503;53.560;10.246;2022-07-29T11:43:50;101203.75;;;29.16;45.78
18749;BME280;9503;53.560;10.246;2022-07-29T11:46:44;101194.50;;;29.76;43.68
18749;BME280;9503;53.560;10.246;2022-07-29T11:49:12;101189.03;;;29.83;43.35
18749;BME280;9503;53.560;10.246;2022-07-29T11:51:39;101196.69;;;29.15;42.90
18749;BME280;9503;53.560;10.246;2022-07-29T11:54:09;101193.81;;;29.66;43.48
18749;BME280;9503;53.560;10.246;2022-07-29T11:56:41;101189.56;;;29.97;41.61
18749;BME280;9503;53.560;10.246;2022-07-29T11:59:11;101188.00;;;29.52;41.35
18749;BME280;9503;53.560;10.246;2022-07-29T12:01:51;101186.28;;;30.23;40.83
18749;BME280;9503;53.560;10.246;2022-07-29T12:04:18;101182.97;;;30.15;40.92
18749;BME280;9503;53.560;10.246;2022-07-29T12:06:49;101184.25;;;31.85;39.33
18749;BME280;9503;53.560;10.246;2022-07-29T12:09:18;101182.28;;;31.05;40.02
18749;BME280;9503;53.560;10.246;2022-07-29T12:11:45;101177.28;;;30.63;39.66
18749;BME280;9503;53.560;10.246;2022-07-29T12:14:25;101179.06;;;30.61;40.81
18749;BME280;9503;53.560;10.246;2022-07-29T12:16:52;101174.66;;;30.62;39.65
18749;BME280;9503;53.560;10.246;2022-07-29T12:19:19;101168.72;;;30.21;41.26
18749;BME280;9503;53.560;10.246;2022-07-29T12:21:46;101173.38;;;30.44;41.28
18749;BME280;9503;53.560;10.246;2022-07-29T12:24:13;101179.53;;;30.12;40.86
18749;BME280;9503;53.560;10.246;2022-07-29T12:26:50;101177.63;;;29.80;41.72
18749;BME280;9503;53.560;10.246;2022-07-29T12:29:17;101177.34;;;30.60;40.45
18749;BME280;9503;53.560;10.246;2022-07-29T12:31:44;101169.81;;;31.38;38.48
18749;BME280;9503;53.560;10.246;2022-07-29T12:34:12;101173.50;;;32.15;37.95
18749;BME280;9503;53.560;10.246;2022-07-29T12:36:40;101172.13;;;31.19;39.18
18749;BME280;9503;53.560;10.246;2022-07-29T12:39:08;101160.69;;;30.24;40.76
18749;BME280;9503;53.560;10.246;2022-07-29T12:41:35;101167.84;;;30.86;41.46
18749;BME280;9503;53.560;10.246;2022-07-29T12:44:04;101168.66;;;31.17;39.57
18749;BME280;9503;53.560;10.246;2022-07-29T12:46:31;101165.25;;;30.83;40.92
18749;BME280;9503;53.560;10.246;2022-07-29T12:48:57;101168.00;;;30.14;41.56
18749;BME280;9503;53.560;10.246;2022-07-29T12:51:31;101161.13;;;30.06;41.16
18749;BME280;9503;53.560;10.246;2022-07-29T12:54:08;101164.00;;;30.65;41.08
18749;BME280;9503;53.560;10.246;2022-07-29T12:56:36;101160.41;;;31.28;39.61
18749;BME280;9503;53.560;10.246;2022-07-29T12:59:13;101154.13;;;30.71;40.25
18749;BME280;9503;53.560;10.246;2022-07-29T13:01:40;101155.09;;;31.56;39.86
18749;BME280;9503;53.560;10.246;2022-07-29T13:04:07;101159.97;;;31.12;40.66
18749;BME280;9503;53.560;10.246;2022-07-29T13:06:38;101158.38;;;31.64;39.62
18749;BME280;9503;53.560;10.246;2022-07-29T13:09:08;101159.97;;;30.83;39.57
18749;BME280;9503;53.560;10.246;2022-07-29T13:11:37;101160.69;;;30.57;40.22